Terminal Aerodrome Forecast
Issued by NWS

Home | Current Version | Previous Version | Text Only | Print | Product List | Glossary On
Versions: 1 2 3 4 5 6 7 8 9 10 11 12 13
000
FTUS46 KMTR 042342
TAFSJC
TAF
KSJC 042342Z 0500/0524 31013KT P6SM SCT040 BKN180
     FM050500 31008KT P6SM SCT180
     FM050900 32005KT P6SM OVC015
     FM051100 VRB03KT P6SM OVC010
     FM051800 30009KT P6SM FEW020 SCT250=

USA.gov is the U.S. government's official web portal to all federal, state and local government web resources and services.